createdAt,value
2023-04-17T00:01:01.288Z,17.47
2023-04-17T00:03:31.904Z,18.87
2023-04-17T00:05:59.923Z,17.70
2023-04-17T00:08:27.638Z,20.53
2023-04-17T00:11:06.393Z,15.00
2023-04-17T00:13:36.694Z,19.50
2023-04-17T00:16:04.486Z,21.13
2023-04-17T00:18:32.233Z,19.37
2023-04-17T00:20:59.971Z,19.63
2023-04-17T00:23:27.698Z,18.20
2023-04-17T00:25:55.434Z,22.40
2023-04-17T00:28:23.405Z,19.37
2023-04-17T00:30:52.493Z,21.43
2023-04-17T00:33:20.239Z,23.77
2023-04-17T00:35:47.994Z,21.37
2023-04-17T00:38:15.798Z,19.87
2023-04-17T00:40:45.342Z,20.10
2023-04-17T00:43:13.159Z,23.00
2023-04-17T00:45:41.400Z,18.70
2023-04-17T00:48:13.205Z,23.53
2023-04-17T00:50:40.972Z,20.53
2023-04-17T00:53:08.773Z,22.47
2023-04-17T00:55:38.805Z,22.23
2023-04-17T00:58:07.094Z,20.77
2023-04-17T01:00:36.060Z,24.07
2023-04-17T01:03:04.425Z,25.67
2023-04-17T01:05:35.480Z,21.70
2023-04-17T01:08:03.382Z,18.60
2023-04-17T01:10:31.167Z,21.53
2023-04-17T01:13:09.083Z,20.83
2023-04-17T01:15:37.340Z,20.73
2023-04-17T01:18:06.150Z,21.97
2023-04-17T01:20:35.730Z,23.63
2023-04-17T01:23:03.888Z,22.77
2023-04-17T01:25:33.211Z,23.33
2023-04-17T01:28:00.955Z,21.73
2023-04-17T01:30:28.656Z,23.93
2023-04-17T01:32:56.538Z,20.00
2023-04-17T01:35:24.312Z,17.90
2023-04-17T01:37:52.237Z,19.80
2023-04-17T01:40:20.034Z,21.83
2023-04-17T01:42:49.657Z,20.90
2023-04-17T01:45:17.418Z,22.17
2023-04-17T01:47:45.489Z,21.30
2023-04-17T01:50:14.189Z,19.40
2023-04-17T01:52:41.912Z,26.13
2023-04-17T01:55:10.464Z,23.00
2023-04-17T01:57:38.174Z,22.77
2023-04-17T02:00:09.227Z,20.40
2023-04-17T02:02:37.088Z,22.20
2023-04-17T02:05:05.126Z,27.63
2023-04-17T02:07:32.852Z,23.43
2023-04-17T02:10:00.556Z,26.33
2023-04-17T02:12:28.402Z,26.93
2023-04-17T02:15:00.852Z,24.40
2023-04-17T02:17:30.070Z,25.00
2023-04-17T02:19:57.807Z,24.80
2023-04-17T02:22:25.501Z,23.07
2023-04-17T02:24:53.185Z,24.53
2023-04-17T02:27:20.876Z,22.87
2023-04-17T02:29:48.611Z,25.80
2023-04-17T02:32:16.655Z,26.47
2023-04-17T02:34:45.875Z,22.47
2023-04-17T02:37:13.617Z,24.17
2023-04-17T02:39:41.356Z,21.63
2023-04-17T02:42:10.203Z,23.27
2023-04-17T02:44:37.954Z,30.07
2023-04-17T02:47:05.709Z,23.87
2023-04-17T02:49:33.493Z,23.67
2023-04-17T02:52:02.570Z,24.17
2023-04-17T02:54:30.306Z,24.83
2023-04-17T02:56:58.544Z,23.53
2023-04-17T02:59:26.410Z,26.53
2023-04-17T03:01:54.200Z,25.70
2023-04-17T03:04:22.070Z,22.40
2023-04-17T03:06:49.802Z,27.53
2023-04-17T03:09:20.871Z,25.50
2023-04-17T03:11:48.593Z,26.00
2023-04-17T03:14:16.428Z,29.07
2023-04-17T03:16:44.214Z,32.03
2023-04-17T03:19:12.284Z,33.10
2023-04-17T03:21:40.328Z,27.43
2023-04-17T03:24:08.582Z,26.83
2023-04-17T03:26:37.665Z,26.37
2023-04-17T03:29:05.427Z,27.93
2023-04-17T03:31:33.170Z,29.53
2023-04-17T03:34:00.884Z,26.87
2023-04-17T03:36:28.603Z,26.73
2023-04-17T03:38:57.760Z,26.57
2023-04-17T03:41:25.543Z,27.03
2023-04-17T03:43:54.669Z,87.13
2023-04-17T03:46:22.715Z,39.87
2023-04-17T03:48:50.538Z,30.57
2023-04-17T03:51:18.283Z,32.30
2023-04-17T03:53:45.985Z,25.93
2023-04-17T03:56:13.802Z,31.20
2023-04-17T03:58:41.522Z,29.00
2023-04-17T04:01:12.544Z,34.10
2023-04-17T04:03:40.687Z,30.70
2023-04-17T04:06:08.764Z,30.00
2023-04-17T04:08:36.527Z,31.07
2023-04-17T04:11:04.300Z,30.17
2023-04-17T04:13:31.985Z,25.20
2023-04-17T04:15:59.718Z,30.13
2023-04-17T04:18:30.578Z,34.87
2023-04-17T04:20:58.297Z,30.03
2023-04-17T04:23:28.060Z,41.60
2023-04-17T04:25:57.023Z,32.30
2023-04-17T04:28:28.156Z,33.07
2023-04-17T04:30:58.685Z,37.43
2023-04-17T04:33:29.458Z,30.07
2023-04-17T04:36:00.913Z,30.80
2023-04-17T04:38:31.278Z,37.97
2023-04-17T04:41:06.099Z,33.40
2023-04-17T04:43:34.795Z,29.97
2023-04-17T04:46:02.567Z,31.07
2023-04-17T04:48:31.684Z,35.97
2023-04-17T04:50:59.551Z,33.07
2023-04-17T04:53:27.286Z,31.00
2023-04-17T04:55:54.986Z,34.80
2023-04-17T04:58:22.680Z,35.70
2023-04-17T05:00:50.565Z,33.20
2023-04-17T05:03:19.009Z,37.63
2023-04-17T05:05:48.246Z,35.97
2023-04-17T05:08:15.958Z,36.47
2023-04-17T05:10:44.688Z,34.90
2023-04-17T05:13:12.413Z,35.37
2023-04-17T05:15:41.331Z,30.40
2023-04-17T05:18:09.129Z,33.73
2023-04-17T05:20:37.696Z,33.40
2023-04-17T05:23:07.077Z,32.70
2023-04-17T05:25:34.791Z,31.90
2023-04-17T05:28:02.522Z,33.80
2023-04-17T05:30:30.358Z,25.77
2023-04-17T05:32:59.167Z,34.67
2023-04-17T05:35:27.200Z,27.60
2023-04-17T05:37:55.734Z,27.30
2023-04-17T05:40:24.845Z,31.03
2023-04-17T05:42:52.547Z,26.03
2023-04-17T05:45:21.396Z,26.47
2023-04-17T05:47:49.947Z,27.93
2023-04-17T05:50:17.658Z,24.10
2023-04-17T05:52:48.242Z,24.70
2023-04-17T05:55:15.975Z,27.17
2023-04-17T05:57:45.081Z,25.07
2023-04-17T06:00:13.941Z,26.13
2023-04-17T06:02:43.143Z,20.43
2023-04-17T06:05:11.504Z,23.50
2023-04-17T06:07:40.346Z,22.03
2023-04-17T06:10:09.191Z,23.07
2023-04-17T06:12:37.552Z,26.07
2023-04-17T06:15:09.104Z,23.90
2023-04-17T06:17:37.474Z,23.37
2023-04-17T06:20:09.867Z,25.43
2023-04-17T06:22:37.873Z,25.80
2023-04-17T06:25:06.632Z,26.40
2023-04-17T06:27:36.770Z,23.67
2023-04-17T06:30:07.665Z,25.37
2023-04-17T06:32:35.501Z,24.10
2023-04-17T06:35:03.266Z,22.67
2023-04-17T06:37:31.111Z,20.40
2023-04-17T06:39:58.853Z,20.07
2023-04-17T06:42:26.618Z,22.60
2023-04-17T06:44:54.499Z,20.20
2023-04-17T06:47:23.609Z,19.93
2023-04-17T06:49:51.315Z,22.07
2023-04-17T06:52:20.205Z,20.20
2023-04-17T06:54:47.924Z,19.63
2023-04-17T06:57:16.865Z,21.93
2023-04-17T06:59:44.635Z,21.10
2023-04-17T07:02:12.449Z,21.47
2023-04-17T07:04:41.898Z,19.17
2023-04-17T07:07:09.700Z,19.73
2023-04-17T07:09:37.426Z,18.70
2023-04-17T07:12:05.483Z,18.07
2023-04-17T07:14:33.550Z,17.10
2023-04-17T07:17:01.315Z,20.10
2023-04-17T07:19:29.132Z,17.10
2023-04-17T07:21:58.206Z,15.13
2023-04-17T07:24:26.125Z,18.43
2023-04-17T07:26:53.905Z,17.73
2023-04-17T07:29:21.599Z,15.03
2023-04-17T07:31:49.392Z,19.03
2023-04-17T07:34:17.086Z,16.23
2023-04-17T07:36:45.151Z,14.33
2023-04-17T07:39:14.411Z,13.83
2023-04-17T07:41:42.263Z,14.73
2023-04-17T07:44:09.996Z,15.43
2023-04-17T07:46:37.767Z,14.10
2023-04-17T07:49:05.545Z,14.57
2023-04-17T07:51:33.277Z,11.83
2023-04-17T07:54:01.405Z,12.33
2023-04-17T07:56:31.827Z,15.50
2023-04-17T07:59:00.078Z,11.53
2023-04-17T08:01:27.969Z,13.27
2023-04-17T08:03:55.991Z,12.33
2023-04-17T08:06:23.900Z,11.37
2023-04-17T08:08:52.065Z,13.47
2023-04-17T08:11:19.791Z,14.07
2023-04-17T08:13:48.881Z,9.93
2023-04-17T08:16:17.025Z,13.90
2023-04-17T08:18:44.734Z,11.27
2023-04-17T08:21:12.469Z,11.20
2023-04-17T08:23:40.819Z,10.97
2023-04-17T08:26:08.748Z,11.53
2023-04-17T08:28:36.499Z,9.27
2023-04-17T08:31:05.843Z,12.00
2023-04-17T08:33:33.608Z,11.00
2023-04-17T08:36:03.011Z,9.23
2023-04-17T08:38:32.113Z,8.03
2023-04-17T08:41:05.630Z,9.30
2023-04-17T08:43:36.846Z,8.70
2023-04-17T08:46:07.537Z,8.67
2023-04-17T08:48:35.420Z,12.63
2023-04-17T08:51:03.513Z,10.30
2023-04-17T08:53:31.264Z,7.43
2023-04-17T08:56:06.861Z,9.27
2023-04-17T08:58:37.301Z,8.30
2023-04-17T09:01:15.809Z,10.23
2023-04-17T09:03:45.620Z,8.00
2023-04-17T09:06:14.790Z,11.40
2023-04-17T09:08:56.481Z,8.23
2023-04-17T09:11:24.392Z,10.50
2023-04-17T09:13:52.147Z,8.70
2023-04-17T09:16:21.525Z,9.30
2023-04-17T09:18:49.726Z,8.77
2023-04-17T09:21:19.634Z,6.90
2023-04-17T09:23:49.695Z,9.73
2023-04-17T09:26:19.313Z,7.67
2023-04-17T09:29:05.059Z,9.10
2023-04-17T09:31:37.388Z,10.13
2023-04-17T09:34:07.548Z,8.50
2023-04-17T09:36:36.831Z,7.97
2023-04-17T09:39:06.537Z,7.40
2023-04-17T09:41:36.334Z,9.53
2023-04-17T09:44:06.387Z,9.30
2023-04-17T09:46:38.181Z,9.80
2023-04-17T09:49:10.986Z,9.50
2023-04-17T09:51:39.184Z,8.13
2023-04-17T09:54:07.878Z,8.17
2023-04-17T09:56:37.804Z,8.80
2023-04-17T09:59:06.812Z,9.73
2023-04-17T10:01:38.325Z,10.53
2023-04-17T10:04:06.874Z,10.20
2023-04-17T10:06:36.658Z,11.50
2023-04-17T10:09:05.774Z,12.03
2023-04-17T10:11:37.349Z,13.37
2023-04-17T10:14:11.831Z,12.37
2023-04-17T10:16:43.549Z,11.60
2023-04-17T10:19:31.683Z,10.83
2023-04-17T10:22:31.037Z,11.57
2023-04-17T10:25:18.445Z,9.27
2023-04-17T10:27:48.711Z,8.90
2023-04-17T10:30:17.246Z,9.47
2023-04-17T10:32:47.989Z,9.00
2023-04-17T10:35:34.989Z,11.73
2023-04-17T10:38:05.090Z,9.47
2023-04-17T10:40:34.383Z,8.67
2023-04-17T10:43:12.310Z,8.33
2023-04-17T10:46:13.594Z,7.87
2023-04-17T10:48:49.761Z,7.17
2023-04-17T10:51:44.646Z,7.00
2023-04-17T10:54:15.379Z,7.63
2023-04-17T10:56:46.098Z,10.57
2023-04-17T10:59:15.135Z,6.97
2023-04-17T11:02:00.560Z,7.17
2023-04-17T11:04:31.855Z,6.93
2023-04-17T11:06:59.635Z,7.40
2023-04-17T11:09:29.351Z,8.33
2023-04-17T11:12:01.404Z,7.40
2023-04-17T11:14:30.295Z,8.80
2023-04-17T11:16:58.396Z,8.10
2023-04-17T11:19:27.068Z,6.63
2023-04-17T11:21:58.829Z,7.47
2023-04-17T11:24:27.754Z,7.57
2023-04-17T11:26:58.337Z,7.83
2023-04-17T11:29:26.410Z,8.77
2023-04-17T11:31:55.484Z,7.00
2023-04-17T11:34:23.761Z,7.50
2023-04-17T11:36:51.943Z,8.93
2023-04-17T11:39:22.554Z,8.73
2023-04-17T11:41:52.350Z,7.43
2023-04-17T11:44:21.149Z,8.50
2023-04-17T11:46:50.999Z,6.67
2023-04-17T11:49:25.469Z,6.00
2023-04-17T11:51:53.411Z,6.97
2023-04-17T11:54:27.458Z,6.93
2023-04-17T11:57:03.007Z,7.63
2023-04-17T11:59:32.019Z,7.57
2023-04-17T12:02:01.814Z,6.07
2023-04-17T12:04:33.519Z,5.60
2023-04-17T12:07:01.932Z,6.53
2023-04-17T12:09:32.288Z,7.37
2023-04-17T12:12:01.286Z,6.40
2023-04-17T12:14:29.012Z,7.30
2023-04-17T12:16:56.759Z,6.33
2023-04-17T12:19:26.666Z,5.70
2023-04-17T12:21:55.583Z,5.90
2023-04-17T12:24:24.973Z,6.10
2023-04-17T12:26:54.540Z,6.07
2023-04-17T12:29:36.205Z,5.97
2023-04-17T12:32:10.808Z,5.63
2023-04-17T12:34:38.773Z,6.23
2023-04-17T12:37:06.573Z,5.90
2023-04-17T12:39:34.503Z,6.07
2023-04-17T12:42:03.580Z,6.37
2023-04-17T12:44:31.308Z,7.30
2023-04-17T12:46:59.083Z,7.03
2023-04-17T12:49:26.866Z,7.53
2023-04-17T12:51:54.579Z,6.43
2023-04-17T12:54:22.278Z,7.90
2023-04-17T12:56:50.015Z,7.50
2023-04-17T12:59:19.122Z,7.60
2023-04-17T13:01:46.852Z,7.97
2023-04-17T13:04:15.076Z,7.93
2023-04-17T13:06:43.145Z,6.77
2023-04-17T13:09:11.412Z,8.00
2023-04-17T13:11:39.351Z,7.10
2023-04-17T13:14:07.435Z,7.03
2023-04-17T13:16:36.590Z,6.73
2023-04-17T13:19:04.356Z,7.23
2023-04-17T13:21:32.049Z,7.20
2023-04-17T13:23:59.737Z,6.80
2023-04-17T13:26:27.529Z,6.37
2023-04-17T13:28:55.286Z,7.43
2023-04-17T13:31:24.559Z,6.87
2023-04-17T13:33:53.730Z,6.97
2023-04-17T13:36:21.446Z,7.23
2023-04-17T13:38:49.168Z,6.93
2023-04-17T13:41:16.896Z,6.80
2023-04-17T13:43:44.606Z,8.13
2023-04-17T13:46:16.003Z,6.20
2023-04-17T13:48:43.926Z,5.83
2023-04-17T13:51:13.028Z,6.17
2023-04-17T13:53:40.787Z,7.20
2023-04-17T13:56:08.802Z,7.07
2023-04-17T13:58:36.548Z,7.07
2023-04-17T14:01:04.272Z,6.53
2023-04-17T14:03:32.107Z,7.57
2023-04-17T14:05:59.909Z,8.33
2023-04-17T14:08:28.940Z,6.93
2023-04-17T14:10:56.644Z,6.23
2023-04-17T14:13:24.368Z,6.40
2023-04-17T14:15:53.764Z,6.63
2023-04-17T14:18:22.054Z,6.30
2023-04-17T14:20:52.461Z,7.70
2023-04-17T14:23:20.596Z,7.37
2023-04-17T14:25:49.643Z,8.23
2023-04-17T14:28:18.412Z,7.77
2023-04-17T14:30:46.142Z,8.87
2023-04-17T14:33:13.905Z,9.30
2023-04-17T14:35:41.689Z,8.13
2023-04-17T14:38:09.404Z,9.60
2023-04-17T14:40:37.113Z,10.43
2023-04-17T14:43:06.194Z,7.50
2023-04-17T14:45:34.576Z,7.70
2023-04-17T14:48:02.390Z,7.53
2023-04-17T14:50:30.251Z,8.33
2023-04-17T14:52:57.988Z,10.73
2023-04-17T14:55:25.924Z,6.93
2023-04-17T14:57:53.755Z,8.87
2023-04-17T15:00:23.337Z,8.57
2023-04-17T15:02:51.197Z,9.30
2023-04-17T15:05:20.870Z,7.43
2023-04-17T15:07:48.779Z,9.80
2023-04-17T15:10:16.784Z,9.20
2023-04-17T15:12:44.991Z,7.93
2023-04-17T15:15:13.245Z,9.37
2023-04-17T15:17:42.670Z,10.33
2023-04-17T15:20:10.834Z,9.93
2023-04-17T15:22:38.565Z,7.63
2023-04-17T15:25:07.388Z,10.43
2023-04-17T15:27:35.333Z,7.73
2023-04-17T15:30:04.941Z,6.80
2023-04-17T15:32:32.684Z,9.10
2023-04-17T15:35:03.008Z,8.67
2023-04-17T15:37:30.773Z,7.73
2023-04-17T15:39:58.723Z,7.23
2023-04-17T15:42:27.156Z,9.47
2023-04-17T15:44:55.432Z,8.73
2023-04-17T15:47:23.208Z,8.47
2023-04-17T15:49:50.948Z,9.73
2023-04-17T15:52:20.048Z,12.13
2023-04-17T15:54:47.750Z,11.10
2023-04-17T15:57:15.514Z,15.33
2023-04-17T15:59:43.239Z,11.43
2023-04-17T16:02:12.168Z,16.13
2023-04-17T16:04:40.500Z,13.30
2023-04-17T16:07:08.309Z,12.53
2023-04-17T16:09:37.358Z,12.40
2023-04-17T16:12:08.546Z,11.83
2023-04-17T16:14:36.750Z,13.03
2023-04-17T16:17:04.830Z,23.73
2023-04-17T16:19:32.770Z,11.53
2023-04-17T16:22:00.732Z,12.13
2023-04-17T16:24:28.908Z,13.33
2023-04-17T16:26:58.669Z,11.70
2023-04-17T16:29:26.820Z,10.50
2023-04-17T16:31:55.869Z,11.37
2023-04-17T16:34:23.797Z,11.83
2023-04-17T16:36:51.683Z,13.90
2023-04-17T16:39:19.363Z,12.40
2023-04-17T16:41:47.094Z,11.37
2023-04-17T16:44:16.344Z,11.63
2023-04-17T16:46:59.230Z,12.60
2023-04-17T16:49:32.389Z,12.20
2023-04-17T16:52:00.199Z,10.27
2023-04-17T16:54:27.983Z,10.50
2023-04-17T16:56:55.818Z,9.60
2023-04-17T16:59:24.902Z,10.73
2023-04-17T17:01:52.743Z,11.40
2023-04-17T17:04:20.542Z,14.33
2023-04-17T17:06:48.253Z,10.43
2023-04-17T17:09:16.010Z,9.87
2023-04-17T17:11:43.725Z,10.40
2023-04-17T17:14:11.450Z,10.73
2023-04-17T17:16:41.442Z,13.17
2023-04-17T17:19:09.277Z,14.07
2023-04-17T17:21:37.028Z,13.23
2023-04-17T17:24:05.177Z,11.10
2023-04-17T17:26:32.983Z,13.87
2023-04-17T17:29:00.756Z,12.17
2023-04-17T17:31:28.877Z,16.00
2023-04-17T17:34:11.930Z,11.70
2023-04-17T17:36:50.068Z,13.27
2023-04-17T17:39:17.781Z,30.50
2023-04-17T17:41:47.406Z,18.60
2023-04-17T17:44:15.478Z,17.10
2023-04-17T17:46:43.326Z,14.47
2023-04-17T17:49:12.411Z,12.80
2023-04-17T17:51:40.118Z,17.63
2023-04-17T17:54:08.025Z,15.70
2023-04-17T17:56:35.849Z,13.50
2023-04-17T17:59:03.534Z,10.20
2023-04-17T18:01:31.295Z,16.57
2023-04-17T18:03:59.127Z,18.03
2023-04-17T18:06:28.500Z,15.37
2023-04-17T18:08:57.893Z,12.87
2023-04-17T18:11:25.780Z,14.93
2023-04-17T18:13:53.566Z,12.70
2023-04-17T18:16:21.545Z,13.67
2023-04-17T18:18:49.312Z,11.90
2023-04-17T18:21:17.205Z,15.87
2023-04-17T18:23:46.301Z,13.47
2023-04-17T18:26:13.965Z,12.17
2023-04-17T18:28:42.526Z,18.17
2023-04-17T18:31:10.727Z,13.70
2023-04-17T18:33:38.511Z,13.53
2023-04-17T18:36:06.675Z,14.00
2023-04-17T18:38:34.820Z,16.43
2023-04-17T18:41:04.534Z,15.70
2023-04-17T18:43:32.400Z,14.47
2023-04-17T18:46:04.248Z,15.03
2023-04-17T18:48:32.083Z,13.67
2023-04-17T18:51:09.443Z,15.30
2023-04-17T18:53:37.200Z,14.40
2023-04-17T18:56:06.666Z,13.03
2023-04-17T18:58:34.373Z,17.03
2023-04-17T19:01:02.137Z,16.30
2023-04-17T19:03:29.938Z,14.70
2023-04-17T19:05:57.701Z,15.00
2023-04-17T19:08:25.804Z,16.10
2023-04-17T19:10:53.541Z,16.63
2023-04-17T19:13:22.686Z,13.33
2023-04-17T19:15:50.477Z,16.63
2023-04-17T19:18:18.450Z,17.43
2023-04-17T19:20:46.255Z,14.43
2023-04-17T19:23:14.006Z,17.37
2023-04-17T19:25:42.969Z,15.27
2023-04-17T19:28:11.405Z,18.67
2023-04-17T19:30:40.683Z,17.77
2023-04-17T19:33:08.788Z,17.70
2023-04-17T19:35:36.594Z,18.77
2023-04-17T19:38:04.353Z,16.50
2023-04-17T19:40:32.144Z,32.13
2023-04-17T19:43:01.357Z,17.03
2023-04-17T19:45:29.216Z,15.33
2023-04-17T19:47:58.349Z,16.33
2023-04-17T19:50:27.485Z,17.67
2023-04-17T19:52:56.156Z,16.17
2023-04-17T19:55:23.992Z,15.40
2023-04-17T19:57:52.209Z,17.03
2023-04-17T20:00:20.485Z,15.43
2023-04-17T20:02:48.324Z,15.43
2023-04-17T20:05:18.437Z,17.93
2023-04-17T20:07:46.196Z,15.53
2023-04-17T20:10:13.976Z,16.40
2023-04-17T20:12:41.660Z,14.30
2023-04-17T20:15:10.755Z,14.13
2023-04-17T20:17:38.598Z,14.63
2023-04-17T20:20:07.694Z,16.47
2023-04-17T20:22:36.893Z,13.30
2023-04-17T20:25:05.134Z,12.70
2023-04-17T20:27:32.881Z,12.67
2023-04-17T20:30:00.642Z,15.10
2023-04-17T20:32:28.399Z,14.97
2023-04-17T20:34:56.137Z,15.23
2023-04-17T20:37:24.091Z,15.17
2023-04-17T20:39:53.214Z,15.37
2023-04-17T20:42:20.926Z,13.70
2023-04-17T20:44:49.480Z,16.13
2023-04-17T20:47:17.220Z,12.80
2023-04-17T20:49:44.925Z,14.13
2023-04-17T20:52:12.642Z,14.17
2023-04-17T20:54:40.404Z,13.53
2023-04-17T20:57:09.528Z,16.17
2023-04-17T20:59:37.527Z,15.43
2023-04-17T21:02:05.421Z,14.60
2023-04-17T21:04:33.272Z,14.13
2023-04-17T21:07:01.168Z,15.77
2023-04-17T21:09:28.947Z,14.23
2023-04-17T21:11:56.675Z,19.57
2023-04-17T21:14:25.831Z,13.87
2023-04-17T21:16:56.394Z,14.73
2023-04-17T21:19:25.945Z,18.37
2023-04-17T21:21:53.682Z,18.30
2023-04-17T21:24:21.647Z,17.60
2023-04-17T21:26:49.459Z,20.97
2023-04-17T21:29:17.451Z,21.83
2023-04-17T21:31:46.615Z,18.80
2023-04-17T21:34:14.571Z,20.23
2023-04-17T21:36:42.502Z,19.43
2023-04-17T21:39:10.483Z,21.70
2023-04-17T21:41:38.470Z,20.37
2023-04-17T21:44:06.218Z,19.60
2023-04-17T21:46:34.041Z,19.50
2023-04-17T21:49:03.130Z,20.60
2023-04-17T21:51:31.505Z,19.90
2023-04-17T21:53:59.354Z,18.43
2023-04-17T21:56:27.780Z,21.77
2023-04-17T21:58:55.777Z,21.20
2023-04-17T22:01:23.557Z,23.90
2023-04-17T22:03:51.395Z,23.50
2023-04-17T22:06:20.491Z,21.50
2023-04-17T22:08:48.220Z,25.83
2023-04-17T22:11:15.959Z,26.30
2023-04-17T22:13:44.957Z,22.07
2023-04-17T22:16:12.831Z,25.23
2023-04-17T22:18:40.566Z,22.87
2023-04-17T22:21:08.598Z,23.77
2023-04-17T22:23:37.714Z,21.20
2023-04-17T22:26:05.704Z,27.23
2023-04-17T22:28:33.439Z,24.13
2023-04-17T22:31:01.224Z,27.17
2023-04-17T22:33:29.000Z,26.77
2023-04-17T22:35:56.774Z,30.07
2023-04-17T22:38:24.485Z,28.40
2023-04-17T22:40:55.934Z,31.33
2023-04-17T22:43:23.637Z,29.37
2023-04-17T22:45:51.408Z,32.93
2023-04-17T22:48:19.338Z,33.90
2023-04-17T22:50:47.254Z,33.33
2023-04-17T22:53:14.967Z,31.03
2023-04-17T22:55:42.749Z,36.20
2023-04-17T22:58:11.876Z,36.10
2023-04-17T23:00:39.604Z,35.30
2023-04-17T23:03:07.458Z,33.67
2023-04-17T23:05:35.328Z,36.40
2023-04-17T23:08:03.069Z,37.60
2023-04-17T23:10:30.780Z,40.33
2023-04-17T23:12:58.452Z,40.80
2023-04-17T23:15:27.601Z,39.50
2023-04-17T23:17:55.536Z,41.27
2023-04-17T23:20:24.877Z,37.30
2023-04-17T23:22:52.997Z,40.67
2023-04-17T23:25:20.737Z,41.90
2023-04-17T23:27:48.476Z,39.43
2023-04-17T23:30:16.351Z,35.87
2023-04-17T23:32:45.891Z,40.13
2023-04-17T23:35:13.650Z,39.63
2023-04-17T23:37:41.425Z,38.27
2023-04-17T23:40:10.334Z,40.97
2023-04-17T23:42:38.016Z,39.53
2023-04-17T23:45:06.715Z,43.97
2023-04-17T23:47:34.573Z,41.77
2023-04-17T23:50:05.322Z,43.23
2023-04-17T23:52:33.152Z,43.93
2023-04-17T23:55:01.629Z,43.03
2023-04-17T23:57:29.699Z,38.10
2023-04-17T23:59:57.408Z,43.53
